Time;durP1;ratioP1;P1;durP2;ratioP2;P2;SDS_P1;SDS_P2;PMS_P1;PMS_P2;Temp;Humidity;BMP_temperature;BMP_pressure;BME280_temperature;BME280_humidity;BME280_pressure;Samples;Min_cycle;Max_cycle;Signal;HPM_P1;HPM_P2
2022/11/15 00:01:45;;;;;;;73.07;38.53;;;256.40;2252.80;;;;;;4972213;28;20493;-63
2022/11/15 00:04:10;;;;;;;66.32;35.17;;;256.30;1996.80;;;;;;4970951;28;20054;-60
2022/11/15 00:06:36;;;;;;;65.38;37.85;;;256.30;2252.80;;;;;;4966094;28;20385;-63
2022/11/15 00:09:02;;;;;;;62.65;34.92;;;256.30;2252.80;;;;;;4972040;28;20030;-58
2022/11/15 00:11:28;;;;;;;55.70;32.15;;;256.40;2252.80;;;;;;4968948;28;20034;-61
2022/11/15 00:13:57;;;;;;;60.08;35.47;;;256.50;2252.80;;;;;;4986282;28;20074;-64
2022/11/15 00:16:24;;;;;;;49.55;30.95;;;256.50;2252.80;;;;;;4971908;28;20063;-61
2022/11/15 00:18:51;;;;;;;47.15;27.98;;;256.40;2252.80;;;;;;4971415;28;20041;-64
2022/11/15 00:21:17;;;;;;;49.17;29.83;;;256.40;2252.80;;;;;;4971699;28;20110;-63
2022/11/15 00:23:43;;;;;;;51.28;29.40;;;256.30;2252.80;;;;;;4971272;28;20039;-59
2022/11/15 00:26:13;;;;;;;45.30;28.08;;;256.20;1971.20;;;;;;4973705;28;20041;-63
2022/11/15 00:28:39;;;;;;;50.83;28.73;;;256.00;2252.80;;;;;;4975712;28;20022;-60
2022/11/15 00:31:08;;;;;;;49.70;29.48;;;231.30;2252.80;;;;;;4956757;28;20093;-60
2022/11/15 00:33:34;;;;;;;47.95;29.25;;;231.10;2252.80;;;;;;4975363;28;20358;-64
2022/11/15 00:36:06;;;;;;;49.97;28.95;;;231.10;2252.80;;;;;;4980291;28;20045;-64
2022/11/15 00:38:33;;;;;;;49.15;28.50;;;231.10;2252.80;;;;;;4982132;28;20026;-61
2022/11/15 00:40:59;;;;;;;45.45;28.02;;;231.10;2252.80;;;;;;4985340;28;20114;-61
2022/11/15 00:43:25;;;;;;;52.33;29.75;;;231.20;2252.80;;;;;;4993026;28;20065;-65
2022/11/15 00:45:51;;;;;;;50.65;30.00;;;231.10;2252.80;;;;;;4985303;28;20046;-65
2022/11/15 00:48:16;;;;;;;48.90;28.38;;;231.10;2252.80;;;;;;4992263;28;20372;-63
2022/11/15 00:50:42;;;;;;;50.78;29.58;;;231.20;2252.80;;;;;;4994323;28;20031;-66
2022/11/15 00:53:07;;;;;;;52.08;30.00;;;231.10;2252.80;;;;;;4994353;28;20030;-63
2022/11/15 00:55:33;;;;;;;50.42;29.73;;;231.00;2252.80;;;;;;4994781;28;20022;-66
2022/11/15 00:57:59;;;;;;;47.55;28.48;;;230.90;2252.80;;;;;;4994185;28;20018;-66
2022/11/15 01:00:24;;;;;;;50.70;29.92;;;230.90;2252.80;;;;;;4983124;28;20034;-66
2022/11/15 01:02:50;;;;;;;49.22;28.83;;;230.80;2252.80;;;;;;4974482;28;20042;-62
2022/11/15 01:05:16;;;;;;;52.47;30.05;;;230.90;2252.80;;;;;;4975437;28;20030;-61
2022/11/15 01:07:42;;;;;;;48.70;28.92;;;230.90;2252.80;;;;;;4974556;28;20135;-65
2022/11/15 01:10:08;;;;;;;53.75;29.10;;;230.90;2252.80;;;;;;4973121;28;20121;-60
2022/11/15 01:12:35;;;;;;;49.42;28.00;;;230.90;2252.80;;;;;;4974657;28;20389;-61
2022/11/15 01:15:00;;;;;;;47.88;27.33;;;230.90;2252.80;;;;;;4972713;28;20041;-60
2022/11/15 01:17:26;;;;;;;49.45;28.63;;;230.90;2252.80;;;;;;4972891;28;20023;-61
2022/11/15 01:19:52;;;;;;;45.08;27.13;;;231.10;2252.80;;;;;;4972654;28;20038;-61
2022/11/15 01:22:18;;;;;;;45.78;26.58;;;231.20;2252.80;;;;;;4974715;28;20051;-59
2022/11/15 01:24:43;;;;;;;48.67;27.50;;;231.30;2099.20;;;;;;4954929;28;20049;-57
2022/11/15 01:27:09;;;;;;;47.17;27.65;;;231.30;1996.80;;;;;;4980297;28;20062;-65
2022/11/15 01:29:35;;;;;;;43.92;26.55;;;231.30;2201.60;;;;;;4974663;28;20034;-62
2022/11/15 01:32:01;;;;;;;45.72;27.17;;;231.30;1894.40;;;;;;4974759;28;20027;-62
2022/11/15 01:34:26;;;;;;;47.13;27.90;;;231.20;2252.80;;;;;;4974690;28;20022;-59
2022/11/15 01:36:52;;;;;;;44.90;27.67;;;231.20;2252.80;;;;;;4974041;28;20027;-62
2022/11/15 01:39:18;;;;;;;46.58;27.90;;;231.30;2252.80;;;;;;4980173;28;20030;-66
2022/11/15 01:41:43;;;;;;;47.25;27.40;;;231.30;2048.00;;;;;;4993636;28;20026;-61
2022/11/15 01:44:31;;;;;;;47.58;27.98;;;231.30;2252.80;;;;;;4992691;28;20053;-65
2022/11/15 01:46:59;;;;;;;45.58;27.40;;;231.30;2252.80;;;;;;4993453;28;20547;-61
2022/11/15 01:49:27;;;;;;;47.35;27.67;;;256.00;1868.80;;;;;;4993604;28;20105;-66
2022/11/15 01:51:54;;;;;;;46.10;27.63;;;231.20;2252.80;;;;;;4993604;28;20030;-61
2022/11/15 01:54:22;;;;;;;48.17;28.08;;;256.00;2252.80;;;;;;4993585;28;20117;-59
2022/11/15 01:57:12;;;;;;;44.13;27.25;;;256.00;2227.20;;;;;;4993392;28;20032;-62
2022/11/15 01:59:42;;;;;;;46.15;27.48;;;256.10;2252.80;;;;;;4978378;28;20457;-57
2022/11/15 02:02:08;;;;;;;45.78;27.48;;;256.10;2252.80;;;;;;4973284;28;20085;-62
2022/11/15 02:04:41;;;;;;;46.58;28.30;;;256.10;2252.80;;;;;;4973589;28;20026;-64
2022/11/15 02:07:09;;;;;;;44.45;26.67;;;256.10;2252.80;;;;;;4959698;28;20026;-60
2022/11/15 02:09:37;;;;;;;45.50;28.55;;;256.20;2252.80;;;;;;4973450;28;20031;-64
2022/11/15 02:12:03;;;;;;;46.55;26.80;;;256.10;1945.60;;;;;;4973667;28;20034;-62
2022/11/15 02:14:30;;;;;;;46.28;27.98;;;256.10;2252.80;;;;;;4987845;28;20077;-65
2022/11/15 02:17:13;;;;;;;42.42;26.73;;;256.10;2252.80;;;;;;4974181;28;20058;-63
2022/11/15 02:19:59;;;;;;;43.33;26.08;;;256.20;2252.80;;;;;;4972892;28;20031;-63
2022/11/15 02:22:37;;;;;;;43.53;26.60;;;256.20;2252.80;;;;;;4973169;28;20062;-60
2022/11/15 02:25:36;;;;;;;44.40;27.00;;;256.10;2252.80;;;;;;4975986;28;20105;-64
2022/11/15 02:28:21;;;;;;;44.35;26.63;;;256.10;2252.80;;;;;;4972195;28;20058;-59
2022/11/15 02:30:58;;;;;;;45.90;28.15;;;256.00;2252.80;;;;;;4973447;28;20054;-64
2022/11/15 02:33:47;;;;;;;42.05;26.92;;;231.30;2252.80;;;;;;4969916;28;20428;-67
2022/11/15 02:36:36;;;;;;;49.15;28.23;;;256.10;1945.60;;;;;;4973129;28;20023;-60
2022/11/15 02:39:25;;;;;;;46.67;27.85;;;256.10;2252.80;;;;;;4972944;28;20078;-66
2022/11/15 02:42:01;;;;;;;44.40;26.63;;;256.10;2252.80;;;;;;4926970;29;20047;-65
2022/11/15 02:44:38;;;;;;;49.85;29.65;;;256.00;2252.80;;;;;;4932398;29;20043;-59
2022/11/15 02:47:13;;;;;;;44.35;27.20;;;256.00;1894.40;;;;;;4932530;29;20028;-62
2022/11/15 02:49:43;;;;;;;47.63;28.95;;;256.10;1920.00;;;;;;4931101;29;20028;-59
2022/11/15 02:52:09;;;;;;;46.63;28.35;;;256.30;2252.80;;;;;;4913280;29;20052;-59
2022/11/15 02:54:35;;;;;;;46.78;28.50;;;256.20;1996.80;;;;;;4913669;29;20028;-63
2022/11/15 02:57:33;;;;;;;47.17;27.92;;;256.60;2252.80;;;;;;4913716;29;20123;-59
2022/11/15 03:00:04;;;;;;;47.90;27.63;;;256.20;2252.80;;;;;;4926248;29;20031;-58
2022/11/15 03:02:56;;;;;;;45.30;28.05;;;256.20;2252.80;;;;;;4931988;29;20036;-61
2022/11/15 03:05:40;;;;;;;48.72;28.17;;;256.20;2099.20;;;;;;4931866;29;20054;-61
2022/11/15 03:08:12;;;;;;;46.00;27.58;;;256.20;1945.60;;;;;;4932586;29;20146;-60
2022/11/15 03:10:47;;;;;;;46.33;27.80;;;256.10;2252.80;;;;;;4932134;29;20039;-64
2022/11/15 03:13:35;;;;;;;44.45;27.83;;;256.00;2252.80;;;;;;4931254;29;20035;-60
2022/11/15 03:16:18;;;;;;;44.50;27.55;;;256.10;2124.80;;;;;;4913456;29;20115;-66
2022/11/15 03:18:51;;;;;;;44.10;27.25;;;256.40;2252.80;;;;;;4954560;28;20436;-59
2022/11/15 03:21:20;;;;;;;45.20;27.17;;;256.30;2252.80;;;;;;4991918;28;20034;-66
2022/11/15 03:23:48;;;;;;;46.95;27.85;;;256.30;2252.80;;;;;;4992341;28;20026;-61
2022/11/15 03:26:17;;;;;;;45.40;27.60;;;256.20;2252.80;;;;;;4990857;28;20042;-63
2022/11/15 03:28:51;;;;;;;47.35;28.23;;;;;;;;;;4983101;28;20050;-66
2022/11/15 03:34:07;;;;;;;46.95;28.90;;;256.50;2252.80;;;;;;4984539;28;20436;-64
2022/11/15 03:36:34;;;;;;;46.10;27.58;;;256.50;2252.80;;;;;;4972427;28;20038;-64
2022/11/15 03:39:02;;;;;;;45.17;27.98;;;;;;;;;;4972579;28;20038;-65
2022/11/15 03:41:59;;;;;;;47.63;28.38;;;256.80;2252.80;;;;;;4981908;28;20460;-59
2022/11/15 03:44:43;;;;;;;47.78;28.70;;;256.40;2252.80;;;;;;4909063;29;20041;-67
2022/11/15 03:47:25;;;;;;;49.80;29.77;;;256.20;2252.80;;;;;;4913262;29;20032;-67
2022/11/15 03:49:55;;;;;;;48.63;28.75;;;256.20;2252.80;;;;;;4911306;29;20067;-67
2022/11/15 03:52:22;;;;;;;48.45;29.85;;;256.20;2252.80;;;;;;4906712;29;20434;-66
2022/11/15 03:54:54;;;;;;;47.35;28.20;;;256.20;2252.80;;;;;;4911460;29;20038;-65
2022/11/15 03:57:19;;;;;;;48.63;28.80;;;256.10;1894.40;;;;;;4913083;29;20107;-66
2022/11/15 03:59:45;;;;;;;46.42;28.10;;;256.20;2252.80;;;;;;4915528;29;20447;-63
2022/11/15 04:02:12;;;;;;;43.90;27.08;;;256.20;2252.80;;;;;;4902240;29;20040;-65
2022/11/15 04:04:38;;;;;;;47.60;28.02;;;256.30;2252.80;;;;;;4909264;29;20041;-66
2022/11/15 04:07:04;;;;;;;48.72;28.60;;;256.20;2252.80;;;;;;4915485;29;20612;-66
2022/11/15 04:09:29;;;;;;;51.58;30.52;;;256.10;2252.80;;;;;;4922360;29;20548;-66
2022/11/15 04:11:55;;;;;;;48.50;29.33;;;256.10;2252.80;;;;;;4918867;29;20127;-66
2022/11/15 04:14:21;;;;;;;46.63;29.50;;;256.20;2022.40;;;;;;4915405;29;20032;-66
2022/11/15 04:16:46;;;;;;;47.75;27.90;;;256.10;2252.80;;;;;;4904937;29;20049;-65
2022/11/15 04:24:40;;;;;;;45.63;28.20;;;256.10;2252.80;;;;;;4975102;28;20058;-65
2022/11/15 04:27:05;;;;;;;47.47;27.77;;;256.10;2252.80;;;;;;4975230;28;20449;-65
2022/11/15 04:29:34;;;;;;;49.38;29.98;;;256.00;2252.80;;;;;;4975315;28;20030;-63
2022/11/15 04:32:04;;;;;;;46.30;28.92;;;256.10;2252.80;;;;;;4986296;28;20078;-63
2022/11/15 04:34:30;;;;;;;45.05;27.08;;;256.20;2252.80;;;;;;4974585;28;20153;-65
2022/11/15 04:37:11;;;;;;;46.25;27.60;;;256.20;2150.40;;;;;;4974962;28;20045;-65
2022/11/15 04:39:37;;;;;;;49.78;28.95;;;256.10;2252.80;;;;;;4975389;28;20045;-66
2022/11/15 04:42:03;;;;;;;47.22;29.50;;;256.10;2252.80;;;;;;4975316;28;20476;-65
2022/11/15 04:44:28;;;;;;;50.85;30.35;;;256.00;2252.80;;;;;;4974482;28;20026;-64
2022/11/15 04:46:54;;;;;;;52.40;31.20;;;256.10;1996.80;;;;;;4974171;28;20030;-56
2022/11/15 04:49:20;;;;;;;50.30;29.92;;;256.10;2252.80;;;;;;4974900;28;20042;-57
2022/11/15 04:51:46;;;;;;;48.35;30.30;;;256.10;2048.00;;;;;;4975079;28;20437;-55
2022/11/15 04:54:11;;;;;;;46.83;28.20;;;256.00;2252.80;;;;;;4975207;28;20026;-65
2022/11/15 04:56:37;;;;;;;46.47;28.15;;;231.30;2252.80;;;;;;4975108;28;20041;-58
2022/11/15 04:59:02;;;;;;;46.78;28.00;;;256.00;2252.80;;;;;;4972482;28;20106;-56
2022/11/15 05:01:28;;;;;;;43.40;27.02;;;256.00;2252.80;;;;;;4974874;28;20062;-59
2022/11/15 05:06:38;;;;;;;43.15;26.00;;;231.20;2252.80;;;;;;4974558;28;20129;-58
2022/11/15 05:09:04;;;;;;;48.55;29.20;;;231.30;2252.80;;;;;;4970457;28;20516;-66
2022/11/15 05:11:30;;;;;;;48.05;29.02;;;231.20;2252.80;;;;;;4974014;28;20081;-66
2022/11/15 05:13:56;;;;;;;46.33;28.55;;;231.30;2252.80;;;;;;4975110;28;20043;-66
2022/11/15 05:16:22;;;;;;;46.20;27.70;;;256.00;2048.00;;;;;;4956340;28;20038;-66
2022/11/15 05:18:51;;;;;;;55.72;32.78;;;231.20;2252.80;;;;;;4974288;28;20035;-64
2022/11/15 05:21:17;;;;;;;49.05;29.65;;;231.30;2252.80;;;;;;4974174;28;20101;-66
2022/11/15 05:23:43;;;;;;;46.10;28.00;;;256.00;2252.80;;;;;;4974750;28;20066;-66
2022/11/15 05:26:09;;;;;;;47.35;29.52;;;231.30;2252.80;;;;;;4974391;28;20030;-67
2022/11/15 05:28:36;;;;;;;56.15;32.60;;;256.00;2252.80;;;;;;4974650;28;20050;-66
2022/11/15 05:31:15;;;;;;;61.30;35.45;;;231.20;2252.80;;;;;;4973442;28;20058;-65
2022/11/15 05:33:42;;;;;;;132.25;59.58;;;256.00;2252.80;;;;;;4971568;28;20027;-66
2022/11/15 05:36:17;;;;;;;60.45;34.55;;;231.30;1945.60;;;;;;4973859;28;20057;-66
2022/11/15 05:38:43;;;;;;;61.65;35.83;;;256.10;2252.80;;;;;;4974390;28;20023;-66
2022/11/15 05:41:10;;;;;;;69.68;38.75;;;256.10;2048.00;;;;;;4973990;28;20030;-66
2022/11/15 05:43:39;;;;;;;55.97;32.80;;;256.10;2252.80;;;;;;4974120;28;20077;-66
2022/11/15 05:46:05;;;;;;;202.38;92.32;;;256.00;2150.40;;;;;;4973992;28;20046;-66
2022/11/15 05:48:32;;;;;;;92.50;47.33;;;256.10;2099.20;;;;;;4979309;28;20034;-65
2022/11/15 05:50:58;;;;;;;52.40;30.75;;;256.10;2073.60;;;;;;4975624;28;20045;-63
2022/11/15 05:53:25;;;;;;;62.50;35.03;;;256.10;2252.80;;;;;;4973783;28;20085;-64
2022/11/15 05:55:51;;;;;;;49.90;29.75;;;256.10;1868.80;;;;;;4971813;28;20035;-63
2022/11/15 05:58:19;;;;;;;49.20;30.67;;;256.10;2252.80;;;;;;4973852;28;20110;-67
2022/11/15 06:00:44;;;;;;;51.67;30.35;;;256.10;2252.80;;;;;;4972403;28;20086;-66
2022/11/15 06:03:10;;;;;;;54.92;32.60;;;256.10;2252.80;;;;;;4957762;28;20023;-65
2022/11/15 06:05:36;;;;;;;52.67;32.60;;;256.10;2252.80;;;;;;4974322;28;20038;-65
2022/11/15 06:08:01;;;;;;;99.47;51.45;;;256.10;2252.80;;;;;;4973679;28;20027;-64
2022/11/15 06:10:27;;;;;;;83.93;45.63;;;256.20;2252.80;;;;;;4955878;28;20046;-66
2022/11/15 06:13:00;;;;;;;61.58;37.03;;;256.20;2252.80;;;;;;4971922;28;20042;-66
2022/11/15 06:15:26;;;;;;;69.10;40.35;;;256.30;2252.80;;;;;;4973786;28;20034;-67
2022/11/15 06:17:52;;;;;;;63.35;37.30;;;256.10;2022.40;;;;;;4973505;28;20045;-66
2022/11/15 06:20:18;;;;;;;55.20;31.23;;;256.10;2048.00;;;;;;4964343;28;20043;-66
2022/11/15 06:22:43;;;;;;;53.53;32.00;;;256.20;2252.80;;;;;;4967477;28;20105;-66
2022/11/15 06:25:09;;;;;;;53.47;31.63;;;256.30;2252.80;;;;;;4972882;28;20027;-66
2022/11/15 06:27:35;;;;;;;56.58;32.20;;;256.40;2252.80;;;;;;4974574;28;20030;-66
2022/11/15 06:30:00;;;;;;;49.92;29.65;;;256.40;2252.80;;;;;;4978185;28;20472;-63
2022/11/15 06:32:26;;;;;;;58.72;32.15;;;256.50;2252.80;;;;;;4972474;28;20038;-66
2022/11/15 06:34:52;;;;;;;53.35;30.30;;;256.40;2252.80;;;;;;4971575;28;20019;-64
2022/11/15 06:37:17;;;;;;;69.78;38.22;;;256.50;2252.80;;;;;;4980664;28;20355;-65
2022/11/15 06:39:43;;;;;;;52.30;30.52;;;256.50;2252.80;;;;;;4974450;28;20033;-63
2022/11/15 06:42:09;;;;;;;50.53;30.17;;;256.50;2252.80;;;;;;4977233;28;20038;-62
2022/11/15 06:44:34;;;;;;;72.90;37.45;;;256.40;2252.80;;;;;;4972304;28;20037;-62
2022/11/15 06:47:00;;;;;;;95.53;45.72;;;256.40;1971.20;;;;;;4971842;28;20034;-56
2022/11/15 06:49:26;;;;;;;70.40;37.47;;;256.50;2252.80;;;;;;4972300;28;20031;-62
2022/11/15 06:51:51;;;;;;;63.50;35.55;;;256.60;2252.80;;;;;;4976967;28;20051;-64
2022/11/15 06:54:17;;;;;;;62.33;36.25;;;256.60;2252.80;;;;;;4971014;28;20105;-65
2022/11/15 06:56:43;;;;;;;66.70;38.40;;;256.80;2252.80;;;;;;4972128;28;20031;-64
2022/11/15 06:59:08;;;;;;;67.82;37.95;;;256.70;2252.80;;;;;;4958830;28;20055;-67
2022/11/15 07:01:34;;;;;;;54.60;34.45;;;256.70;2252.80;;;;;;4968582;28;20049;-66
2022/11/15 07:03:59;;;;;;;53.63;33.78;;;256.70;1868.80;;;;;;4972076;28;20034;-66
2022/11/15 07:06:25;;;;;;;52.80;31.48;;;256.80;2252.80;;;;;;4972954;28;20045;-65
2022/11/15 07:08:51;;;;;;;70.85;38.75;;;256.80;2252.80;;;;;;4973019;28;20065;-66
2022/11/15 07:11:16;;;;;;;100.78;49.45;;;256.80;2252.80;;;;;;4986050;28;20050;-58
2022/11/15 07:13:42;;;;;;;69.65;38.65;;;281.60;2278.40;;;;;;4988485;28;20105;-63
2022/11/15 07:16:10;;;;;;;58.75;33.15;;;281.80;2278.40;;;;;;4972709;28;20054;-65
2022/11/15 07:18:37;;;;;;;53.65;31.73;;;281.90;2278.40;;;;;;4973147;28;20029;-61
2022/11/15 07:21:04;;;;;;;66.10;36.83;;;282.00;2278.40;;;;;;4964574;28;20455;-65
2022/11/15 07:23:31;;;;;;;66.85;37.55;;;281.90;2278.40;;;;;;4970790;28;20043;-63
2022/11/15 07:25:58;;;;;;;58.10;32.97;;;282.00;2278.40;;;;;;4979262;28;20041;-65
2022/11/15 07:28:24;;;;;;;55.15;32.80;;;282.00;2278.40;;;;;;4988977;28;20053;-65
2022/11/15 07:30:50;;;;;;;52.10;31.38;;;282.10;2278.40;;;;;;4989068;28;20051;-65
2022/11/15 07:33:16;;;;;;;63.80;36.50;;;282.10;2278.40;;;;;;4973106;28;20031;-60
2022/11/15 07:35:42;;;;;;;75.50;43.88;;;282.40;2278.40;;;;;;4990380;28;20396;-63
2022/11/15 07:38:08;;;;;;;63.90;38.25;;;282.50;2278.40;;;;;;4991337;28;20031;-63
2022/11/15 07:40:34;;;;;;;62.08;38.05;;;307.20;2304.00;;;;;;4982515;28;20175;-61
2022/11/15 07:43:06;;;;;;;56.92;35.10;;;307.20;2304.00;;;;;;4991499;28;20090;-62
2022/11/15 07:45:34;;;;;;;59.20;35.40;;;307.40;2304.00;;;;;;4995817;28;20077;-56
2022/11/15 07:48:00;;;;;;;53.97;32.80;;;307.40;2304.00;;;;;;4995637;28;20042;-64
2022/11/15 07:50:29;;;;;;;50.85;32.20;;;307.50;2304.00;;;;;;4995526;28;20093;-59
2022/11/15 07:52:59;;;;;;;49.47;31.60;;;307.30;2304.00;;;;;;4995636;28;20026;-62
2022/11/15 07:55:27;;;;;;;57.95;37.88;;;307.40;2304.00;;;;;;4995729;28;20034;-63
2022/11/15 07:57:53;;;;;;;54.13;34.05;;;307.40;2304.00;;;;;;4990036;28;20125;-64
2022/11/15 08:00:19;;;;;;;51.60;32.30;;;307.70;2304.00;;;;;;4991361;28;20058;-56
2022/11/15 08:02:45;;;;;;;46.55;31.02;;;307.90;2304.00;;;;;;4995514;28;20498;-65
2022/11/15 08:05:11;;;;;;;41.92;27.60;;;333.00;2329.60;;;;;;4995616;28;20026;-63
2022/11/15 08:07:37;;;;;;;41.90;28.00;;;333.50;2329.60;;;;;;4995600;28;20026;-64
2022/11/15 08:10:05;;;;;;;;;;;358.90;2329.60;;;;;;4995647;28;20132;-62
2022/11/15 08:12:31;;;;;;;;;;;409.60;2355.20;;;;;;4995722;28;19910;-62
2022/11/15 08:14:56;;;;;;;;;;;384.90;2329.60;;;;;;4996006;28;19912;-61
2022/11/15 08:17:25;;;;;;;;;;;384.50;2329.60;;;;;;4987227;28;19910;-62
2022/11/15 08:19:51;;;;;;;;;;;384.50;2329.60;;;;;;4981135;28;19932;-65
2022/11/15 08:22:17;;;;;;;;;;;384.30;2329.60;;;;;;4981678;28;20363;-64
2022/11/15 08:24:42;;;;;;;;;;;359.30;2329.60;;;;;;4972523;28;19969;-58
2022/11/15 08:27:14;;;;;;;;;;;359.30;2329.60;;;;;;4972120;28;19910;-58
2022/11/15 08:29:43;;;;;;;;;;;359.30;2329.60;;;;;;4985885;28;19952;-57
2022/11/15 08:32:10;;;;;;;57.40;38.42;;;359.10;2329.60;;;;;;4970550;28;19917;-66
2022/11/15 08:34:36;;;;;;;;;;;358.60;2329.60;;;;;;4980291;28;20492;-65
2022/11/15 08:37:02;;;;;;;;;;;333.70;2329.60;;;;;;4995605;28;20599;-66
2022/11/15 08:39:27;;;;;;;;;;;358.40;2329.60;;;;;;4995104;28;19906;-65
2022/11/15 08:41:53;;;;;;;;;;;358.40;2329.60;;;;;;4993750;28;19963;-65
2022/11/15 08:44:19;;;;;;;58.10;37.30;;;358.50;2329.60;;;;;;4988265;28;19949;-63
2022/11/15 08:46:48;;;;;;;65.55;39.75;;;333.60;2329.60;;;;;;4992520;28;20035;-66
2022/11/15 08:49:13;;;;;;;66.45;41.50;;;333.60;2329.60;;;;;;4994779;28;20031;-60
2022/11/15 08:51:39;;;;;;;64.03;39.03;;;333.30;2329.60;;;;;;4986391;28;20092;-62
2022/11/15 08:54:05;;;;;;;72.00;44.13;;;333.40;2329.60;;;;;;4982422;28;20161;-65
2022/11/15 08:56:31;;;;;;;73.22;42.05;;;333.40;2329.60;;;;;;4954329;28;20058;-64
2022/11/15 08:58:57;;;;;;;68.60;41.10;;;333.30;2329.60;;;;;;4978416;28;20031;-63
2022/11/15 09:01:23;;;;;;;68.30;40.35;;;333.30;2329.60;;;;;;4973465;28;20045;-62
2022/11/15 09:03:49;;;;;;;61.83;38.25;;;333.20;2329.60;;;;;;4973799;28;20027;-66
2022/11/15 09:06:15;;;;;;;63.35;38.13;;;333.30;2329.60;;;;;;4973004;28;20467;-66
2022/11/15 09:08:41;;;;;;;64.13;39.03;;;333.10;2329.60;;;;;;4976502;28;20023;-65
2022/11/15 09:11:08;;;;;;;66.15;39.95;;;333.30;2329.60;;;;;;4993292;28;20369;-63
2022/11/15 09:13:34;;;;;;;65.03;38.15;;;333.30;2329.60;;;;;;4993240;28;20030;-66
2022/11/15 09:16:00;;;;;;;65.60;38.97;;;333.40;2329.60;;;;;;4993333;28;20277;-62
2022/11/15 09:18:27;;;;;;;70.30;40.65;;;333.30;2329.60;;;;;;4987058;28;20702;-66
2022/11/15 09:20:57;;;;;;;69.40;42.80;;;333.10;2329.60;;;;;;4973620;28;20958;-67
2022/11/15 09:23:23;;;;;;;66.55;40.80;;;333.10;2329.60;;;;;;4973328;28;20125;-66
2022/11/15 09:25:49;;;;;;;76.80;45.83;;;333.30;2329.60;;;;;;4974155;28;20033;-65
2022/11/15 09:28:15;;;;;;;67.13;40.28;;;333.40;2329.60;;;;;;4970731;28;20400;-66
2022/11/15 09:30:41;;;;;;;78.38;45.85;;;333.30;2329.60;;;;;;4974406;28;20094;-67
2022/11/15 09:33:08;;;;;;;67.03;40.97;;;333.40;2329.60;;;;;;4973709;28;20031;-66
2022/11/15 09:35:34;;;;;;;70.60;41.50;;;333.30;2329.60;;;;;;4967437;28;20470;-62
2022/11/15 09:38:00;;;;;;;74.55;43.70;;;333.10;2329.60;;;;;;4974087;28;20115;-64
2022/11/15 09:40:26;;;;;;;88.38;50.88;;;333.10;2329.60;;;;;;4969561;28;20027;-66
2022/11/15 09:43:08;;;;;;;164.50;87.40;;;333.00;2329.60;;;;;;4973231;28;20567;-57
2022/11/15 09:46:01;;;;;;;76.28;44.95;;;332.80;2329.60;;;;;;4973728;28;20031;-55
2022/11/15 09:48:39;;;;;;;91.38;50.28;;;332.90;2329.60;;;;;;4973381;28;20039;-66
2022/11/15 09:51:08;;;;;;;86.07;47.20;;;308.10;2304.00;;;;;;4973283;28;20043;-58
2022/11/15 09:53:53;;;;;;;67.28;40.65;;;307.80;2304.00;;;;;;4973240;28;20065;-56
2022/11/15 09:56:21;;;;;;;68.18;40.72;;;308.00;2304.00;;;;;;4971167;28;20464;-55
2022/11/15 09:58:50;;;;;;;77.53;45.50;;;308.00;2304.00;;;;;;4972716;28;20113;-55
2022/11/15 10:01:43;;;;;;;69.18;41.65;;;308.00;2304.00;;;;;;4973323;28;20031;-58
2022/11/15 10:04:08;;;;;;;69.00;41.03;;;307.70;2304.00;;;;;;4936384;29;20447;-64
2022/11/15 10:06:38;;;;;;;74.32;43.47;;;307.50;2304.00;;;;;;4922041;29;20047;-65
2022/11/15 10:09:17;;;;;;;70.03;42.05;;;307.30;2304.00;;;;;;4921954;29;20041;-62
2022/11/15 10:11:43;;;;;;;67.97;41.42;;;307.50;2304.00;;;;;;4913234;29;20088;-65
2022/11/15 10:14:17;;;;;;;70.53;40.17;;;307.60;2304.00;;;;;;4924610;29;20652;-58
2022/11/15 10:16:44;;;;;;;63.40;37.63;;;307.80;2304.00;;;;;;4951430;29;20055;-65
2022/11/15 10:19:44;;;;;;;59.70;35.63;;;308.00;2304.00;;;;;;4950730;28;20401;-66
2022/11/15 10:22:16;;;;;;;61.17;37.38;;;308.10;2304.00;;;;;;4873473;29;20045;-66
2022/11/15 10:24:44;;;;;;;62.20;36.60;;;308.10;2304.00;;;;;;4875439;29;20121;-64
2022/11/15 10:27:15;;;;;;;57.35;36.35;;;308.10;2304.00;;;;;;4875886;29;20052;-69
2022/11/15 10:29:49;;;;;;;91.15;57.45;;;308.00;2304.00;;;;;;4881981;29;20037;-66
2022/11/15 10:32:17;;;;;;;61.40;37.25;;;308.00;2304.00;;;;;;4893744;29;20076;-65
2022/11/15 10:34:43;;;;;;;60.75;37.20;;;308.00;2304.00;;;;;;4892761;29;20033;-62
2022/11/15 10:37:08;;;;;;;54.55;34.45;;;333.00;2329.60;;;;;;4875266;29;20831;-67
2022/11/15 10:39:34;;;;;;;55.70;34.15;;;333.20;2329.60;;;;;;4888351;29;20111;-66
2022/11/15 10:42:26;;;;;;;55.00;34.63;;;333.50;2329.60;;;;;;4923257;29;20095;-65
2022/11/15 10:44:52;;;;;;;65.38;39.42;;;358.50;2329.60;;;;;;4908012;29;20075;-63
2022/11/15 10:47:31;;;;;;;61.25;36.83;;;358.60;2329.60;;;;;;4916331;29;20106;-65
2022/11/15 10:50:26;;;;;;;61.72;38.75;;;358.70;2329.60;;;;;;4930876;29;20040;-66
2022/11/15 10:52:52;;;;;;;61.80;39.45;;;358.70;2329.60;;;;;;4931233;29;20561;-66
2022/11/15 10:55:17;;;;;;;70.90;42.15;;;358.50;2329.60;;;;;;4931084;29;20063;-65
2022/11/15 10:58:01;;;;;;;64.55;40.30;;;358.50;2329.60;;;;;;4928611;29;20438;-67
2022/11/15 11:00:31;;;;;;;83.97;49.03;;;358.40;2329.60;;;;;;4983985;28;20515;-64
2022/11/15 11:03:27;;;;;;;76.95;46.03;;;333.60;2329.60;;;;;;4967198;28;20126;-52
2022/11/15 11:06:05;;;;;;;68.07;41.78;;;333.50;2329.60;;;;;;4963135;28;20078;-53
2022/11/15 11:08:31;;;;;;;76.38;44.85;;;358.50;2329.60;;;;;;4971696;28;20338;-52
2022/11/15 11:10:59;;;;;;;62.50;37.38;;;358.70;2329.60;;;;;;4968177;28;20038;-57
2022/11/15 11:13:27;;;;;;;86.65;46.17;;;358.80;2329.60;;;;;;4953010;28;20067;-56
2022/11/15 11:16:24;;;;;;;61.35;37.20;;;358.70;2329.60;;;;;;4952875;28;20050;-53
2022/11/15 11:19:04;;;;;;;62.30;36.42;;;358.60;2329.60;;;;;;4949363;28;20066;-53
2022/11/15 11:21:56;;;;;;;74.18;42.88;;;358.50;2329.60;;;;;;4959702;28;20102;-53
2022/11/15 11:24:34;;;;;;;80.78;44.97;;;333.60;2329.60;;;;;;4894114;29;20093;-52
2022/11/15 11:27:18;;;;;;;80.95;45.35;;;333.60;2329.60;;;;;;4893778;29;20440;-59
2022/11/15 11:30:12;;;;;;;79.40;44.92;;;333.50;2329.60;;;;;;4894019;29;20063;-57
2022/11/15 11:32:57;;;;;;;;;;;333.70;2329.60;;;;;;4892693;29;20041;-52
2022/11/15 11:35:38;;;;;;;153.35;66.22;;;358.50;2329.60;;;;;;4892877;29;20469;-53
2022/11/15 11:38:43;;;;;;;86.22;46.45;;;358.40;2329.60;;;;;;4893661;29;20037;-62
2022/11/15 11:41:16;;;;;;;107.57;51.70;;;333.70;2329.60;;;;;;4893473;29;20017;-53
2022/11/15 11:43:42;;;;;;;74.03;40.88;;;333.50;2329.60;;;;;;4893937;29;20059;-52
2022/11/15 11:46:28;;;;;;;121.72;57.03;;;333.60;2329.60;;;;;;4908080;29;20051;-53
2022/11/15 11:49:10;;;;;;;89.25;45.90;;;333.60;2329.60;;;;;;4911958;29;20052;-53
2022/11/15 11:52:05;;;;;;;66.22;38.90;;;333.70;2329.60;;;;;;4912278;29;20041;-58
2022/11/15 11:54:43;;;;;;;178.98;95.75;;;358.50;2329.60;;;;;;4856303;29;20041;-57
2022/11/15 11:57:24;;;;;;;87.07;47.03;;;358.50;2329.60;;;;;;4873946;29;20037;-55
2022/11/15 11:59:56;;;;;;;86.45;44.50;;;358.60;2329.60;;;;;;4837874;29;20038;-53
2022/11/15 12:02:28;;;;;;;95.38;50.95;;;358.70;2329.60;;;;;;4863731;29;20487;-53
2022/11/15 12:05:03;;;;;;;93.68;51.33;;;358.80;2329.60;;;;;;4874346;29;20037;-53
2022/11/15 12:07:34;;;;;;;69.22;40.35;;;358.80;2329.60;;;;;;4890879;29;20330;-70
2022/11/15 12:10:05;;;;;;;72.85;43.95;;;358.50;2329.60;;;;;;4893107;29;20037;-53
2022/11/15 12:12:50;;;;;;;73.55;46.10;;;358.50;2329.60;;;;;;4892732;29;20041;-53
2022/11/15 12:15:22;;;;;;;72.63;42.97;;;358.40;2329.60;;;;;;4906962;29;20032;-56
2022/11/15 12:17:48;;;;;;;74.28;43.50;;;358.40;2329.60;;;;;;4911421;29;20044;-56
2022/11/15 12:20:18;;;;;;;155.18;61.83;;;333.60;2329.60;;;;;;4911799;29;20524;-61
2022/11/15 12:22:52;;;;;;;148.20;65.97;;;358.40;2329.60;;;;;;4914466;29;20059;-56
2022/11/15 12:25:50;;;;;;;88.57;50.30;;;358.50;2329.60;;;;;;4914998;29;20040;-59
2022/11/15 12:28:26;;;;;;;116.00;62.72;;;358.40;2329.60;;;;;;4892005;29;20040;-55
2022/11/15 12:30:59;;;;;;;87.97;49.80;;;333.70;2329.60;;;;;;4923717;29;20054;-55